<?xml version="1.0" encoding="UTF-8" standalone="no" ?>
<gpx xmlns="http://www.topografix.com/GPX/1/1" xmlns:xsi="http://www.w3.org/2001/XMLSchema-instance" xsi:schemaLocation="http://www.topografix.com/GPX/1/1 http://www.topografix.com/GPX/1/1/gpx.xsd" version="1.1" creator="VisuGPX - https://www.visugpx.com">
  <metadata>
    <name>MAXI FREP J4MATIN/36/744</name>
  </metadata>
  <trk>
    <name><![CDATA[12782652-maxi frep 4 matin 35]]></name>
    <extensions>
      <line xmlns="http://www.topografix.com/GPX/gpx_style/0/2">
        <color>0000FF</color>
        <width>4</width>
      </line>
    </extensions>
    <trkseg>
      <trkpt lat="44.47876" lon="1.54475">
        <ele>217</ele>
        <time>2021-04-08T10:06:02Z</time>
      </trkpt>
      <trkpt lat="44.47939" lon="1.54464">
        <ele>217</ele>
        <time>2021-04-08T10:06:17Z</time>
      </trkpt>
      <trkpt lat="44.47963" lon="1.54563">
        <ele>211</ele>
        <time>2021-04-08T10:06:34Z</time>
      </trkpt>
      <trkpt lat="44.4797" lon="1.54669">
        <ele>199</ele>
        <time>2021-04-08T10:06:52Z</time>
      </trkpt>
      <trkpt lat="44.48019" lon="1.5475">
        <ele>198</ele>
        <time>2021-04-08T10:07:10Z</time>
      </trkpt>
      <trkpt lat="44.48001" lon="1.54812">
        <ele>191</ele>
        <time>2021-04-08T10:07:21Z</time>
      </trkpt>
      <trkpt lat="44.48067" lon="1.54911">
        <ele>212</ele>
        <time>2021-04-08T10:07:43Z</time>
      </trkpt>
      <trkpt lat="44.48112" lon="1.54956">
        <ele>208</ele>
        <time>2021-04-08T10:07:56Z</time>
      </trkpt>
      <trkpt lat="44.4817" lon="1.54962">
        <ele>219</ele>
        <time>2021-04-08T10:08:10Z</time>
      </trkpt>
      <trkpt lat="44.48202" lon="1.5492">
        <ele>233</ele>
        <time>2021-04-08T10:08:20Z</time>
      </trkpt>
      <trkpt lat="44.48257" lon="1.54956">
        <ele>227</ele>
        <time>2021-04-08T10:08:34Z</time>
      </trkpt>
      <trkpt lat="44.48296" lon="1.55072">
        <ele>186</ele>
        <time>2021-04-08T10:08:56Z</time>
      </trkpt>
      <trkpt lat="44.48363" lon="1.55079">
        <ele>184</ele>
        <time>2021-04-08T10:09:11Z</time>
      </trkpt>
      <trkpt lat="44.48379" lon="1.55053">
        <ele>189</ele>
        <time>2021-04-08T10:09:17Z</time>
      </trkpt>
      <trkpt lat="44.4845" lon="1.5507">
        <ele>179</ele>
        <time>2021-04-08T10:09:34Z</time>
      </trkpt>
      <trkpt lat="44.48586" lon="1.55147">
        <ele>168</ele>
        <time>2021-04-08T10:10:08Z</time>
      </trkpt>
      <trkpt lat="44.48478" lon="1.55144">
        <ele>150</ele>
        <time>2021-04-08T10:10:33Z</time>
      </trkpt>
      <trkpt lat="44.48542" lon="1.55212">
        <ele>141</ele>
        <time>2021-04-08T10:10:52Z</time>
      </trkpt>
      <trkpt lat="44.48457" lon="1.55151">
        <ele>145</ele>
        <time>2021-04-08T10:11:14Z</time>
      </trkpt>
      <trkpt lat="44.48325" lon="1.5517">
        <ele>134</ele>
        <time>2021-04-08T10:11:45Z</time>
      </trkpt>
      <trkpt lat="44.48126" lon="1.55532">
        <ele>142</ele>
        <time>2021-04-08T10:13:02Z</time>
      </trkpt>
      <trkpt lat="44.48077" lon="1.55479">
        <ele>139</ele>
        <time>2021-04-08T10:13:16Z</time>
      </trkpt>
      <trkpt lat="44.47907" lon="1.55613">
        <ele>153</ele>
        <time>2021-04-08T10:14:02Z</time>
      </trkpt>
      <trkpt lat="44.47731" lon="1.557">
        <ele>151</ele>
        <time>2021-04-08T10:14:45Z</time>
      </trkpt>
      <trkpt lat="44.47722" lon="1.55828">
        <ele>149</ele>
        <time>2021-04-08T10:15:07Z</time>
      </trkpt>
      <trkpt lat="44.47676" lon="1.55839">
        <ele>150</ele>
        <time>2021-04-08T10:15:17Z</time>
      </trkpt>
      <trkpt lat="44.47554" lon="1.55641">
        <ele>191</ele>
        <time>2021-04-08T10:16:01Z</time>
      </trkpt>
      <trkpt lat="44.4756" lon="1.55729">
        <ele>191</ele>
        <time>2021-04-08T10:16:16Z</time>
      </trkpt>
      <trkpt lat="44.47461" lon="1.55476">
        <ele>198</ele>
        <time>2021-04-08T10:17:04Z</time>
      </trkpt>
      <trkpt lat="44.47407" lon="1.5548">
        <ele>214</ele>
        <time>2021-04-08T10:17:17Z</time>
      </trkpt>
      <trkpt lat="44.47381" lon="1.55507">
        <ele>225</ele>
        <time>2021-04-08T10:17:24Z</time>
      </trkpt>
      <trkpt lat="44.47318" lon="1.55608">
        <ele>245</ele>
        <time>2021-04-08T10:17:46Z</time>
      </trkpt>
      <trkpt lat="44.4734" lon="1.55682">
        <ele>251</ele>
        <time>2021-04-08T10:18:00Z</time>
      </trkpt>
      <trkpt lat="44.47331" lon="1.55754">
        <ele>249</ele>
        <time>2021-04-08T10:18:12Z</time>
      </trkpt>
      <trkpt lat="44.47215" lon="1.5578">
        <ele>251</ele>
        <time>2021-04-08T10:18:39Z</time>
      </trkpt>
      <trkpt lat="44.46923" lon="1.55897">
        <ele>289</ele>
        <time>2021-04-08T10:19:50Z</time>
      </trkpt>
      <trkpt lat="44.46687" lon="1.56052">
        <ele>295</ele>
        <time>2021-04-08T10:20:51Z</time>
      </trkpt>
      <trkpt lat="44.4657" lon="1.56223">
        <ele>311</ele>
        <time>2021-04-08T10:21:31Z</time>
      </trkpt>
      <trkpt lat="44.46515" lon="1.56245">
        <ele>309</ele>
        <time>2021-04-08T10:21:44Z</time>
      </trkpt>
      <trkpt lat="44.46463" lon="1.56305">
        <ele>302</ele>
        <time>2021-04-08T10:22:00Z</time>
      </trkpt>
      <trkpt lat="44.46197" lon="1.56597">
        <ele>292</ele>
        <time>2021-04-08T10:23:19Z</time>
      </trkpt>
      <trkpt lat="44.46141" lon="1.56622">
        <ele>295</ele>
        <time>2021-04-08T10:23:32Z</time>
      </trkpt>
      <trkpt lat="44.45869" lon="1.56831">
        <ele>304</ele>
        <time>2021-04-08T10:24:45Z</time>
      </trkpt>
      <trkpt lat="44.45736" lon="1.56518">
        <ele>289</ele>
        <time>2021-04-08T10:25:46Z</time>
      </trkpt>
      <trkpt lat="44.45596" lon="1.56336">
        <ele>280</ele>
        <time>2021-04-08T10:26:30Z</time>
      </trkpt>
      <trkpt lat="44.45521" lon="1.56208">
        <ele>286</ele>
        <time>2021-04-08T10:26:58Z</time>
      </trkpt>
      <trkpt lat="44.45466" lon="1.56213">
        <ele>287</ele>
        <time>2021-04-08T10:27:11Z</time>
      </trkpt>
      <trkpt lat="44.45255" lon="1.56149">
        <ele>298</ele>
        <time>2021-04-08T10:28:01Z</time>
      </trkpt>
      <trkpt lat="44.45036" lon="1.56187">
        <ele>283</ele>
        <time>2021-04-08T10:28:53Z</time>
      </trkpt>
      <trkpt lat="44.44856" lon="1.56203">
        <ele>265</ele>
        <time>2021-04-08T10:29:35Z</time>
      </trkpt>
      <trkpt lat="44.44752" lon="1.5632">
        <ele>235</ele>
        <time>2021-04-08T10:30:06Z</time>
      </trkpt>
      <trkpt lat="44.44737" lon="1.56437">
        <ele>218</ele>
        <time>2021-04-08T10:30:26Z</time>
      </trkpt>
      <trkpt lat="44.44659" lon="1.56521">
        <ele>193</ele>
        <time>2021-04-08T10:30:49Z</time>
      </trkpt>
      <trkpt lat="44.4459" lon="1.56516">
        <ele>193</ele>
        <time>2021-04-08T10:31:05Z</time>
      </trkpt>
      <trkpt lat="44.44429" lon="1.56404">
        <ele>230</ele>
        <time>2021-04-08T10:31:47Z</time>
      </trkpt>
      <trkpt lat="44.4434" lon="1.56506">
        <ele>246</ele>
        <time>2021-04-08T10:32:14Z</time>
      </trkpt>
      <trkpt lat="44.44273" lon="1.56743">
        <ele>253</ele>
        <time>2021-04-08T10:32:56Z</time>
      </trkpt>
      <trkpt lat="44.44269" lon="1.56876">
        <ele>261</ele>
        <time>2021-04-08T10:33:18Z</time>
      </trkpt>
      <trkpt lat="44.44107" lon="1.57346">
        <ele>264</ele>
        <time>2021-04-08T10:34:45Z</time>
      </trkpt>
      <trkpt lat="44.44058" lon="1.57358">
        <ele>259</ele>
        <time>2021-04-08T10:34:57Z</time>
      </trkpt>
      <trkpt lat="44.44051" lon="1.57417">
        <ele>259</ele>
        <time>2021-04-08T10:35:07Z</time>
      </trkpt>
      <trkpt lat="44.44173" lon="1.58093">
        <ele>284</ele>
        <time>2021-04-08T10:37:03Z</time>
      </trkpt>
      <trkpt lat="44.4428" lon="1.58275">
        <ele>289</ele>
        <time>2021-04-08T10:37:43Z</time>
      </trkpt>
      <trkpt lat="44.44593" lon="1.58446">
        <ele>295</ele>
        <time>2021-04-08T10:39:01Z</time>
      </trkpt>
      <trkpt lat="44.44706" lon="1.58564">
        <ele>293</ele>
        <time>2021-04-08T10:39:34Z</time>
      </trkpt>
      <trkpt lat="44.44866" lon="1.5839">
        <ele>292</ele>
        <time>2021-04-08T10:40:21Z</time>
      </trkpt>
      <trkpt lat="44.4491" lon="1.58399">
        <ele>297</ele>
        <time>2021-04-08T10:40:32Z</time>
      </trkpt>
      <trkpt lat="44.44987" lon="1.58371">
        <ele>306</ele>
        <time>2021-04-08T10:40:50Z</time>
      </trkpt>
      <trkpt lat="44.45025" lon="1.58205">
        <ele>320</ele>
        <time>2021-04-08T10:41:19Z</time>
      </trkpt>
      <trkpt lat="44.45177" lon="1.58378">
        <ele>315</ele>
        <time>2021-04-08T10:42:05Z</time>
      </trkpt>
      <trkpt lat="44.45256" lon="1.58677">
        <ele>301</ele>
        <time>2021-04-08T10:42:58Z</time>
      </trkpt>
      <trkpt lat="44.45424" lon="1.58744">
        <ele>283</ele>
        <time>2021-04-08T10:43:39Z</time>
      </trkpt>
      <trkpt lat="44.45483" lon="1.58719">
        <ele>271</ele>
        <time>2021-04-08T10:43:53Z</time>
      </trkpt>
      <trkpt lat="44.45581" lon="1.5886">
        <ele>252</ele>
        <time>2021-04-08T10:44:26Z</time>
      </trkpt>
      <trkpt lat="44.4558" lon="1.5865">
        <ele>244</ele>
        <time>2021-04-08T10:45:01Z</time>
      </trkpt>
      <trkpt lat="44.45536" lon="1.58535">
        <ele>235</ele>
        <time>2021-04-08T10:45:23Z</time>
      </trkpt>
      <trkpt lat="44.455" lon="1.58504">
        <ele>236</ele>
        <time>2021-04-08T10:45:33Z</time>
      </trkpt>
      <trkpt lat="44.45529" lon="1.58378">
        <ele>238</ele>
        <time>2021-04-08T10:45:55Z</time>
      </trkpt>
      <trkpt lat="44.4558" lon="1.58463">
        <ele>229</ele>
        <time>2021-04-08T10:46:13Z</time>
      </trkpt>
      <trkpt lat="44.45812" lon="1.58697">
        <ele>200</ele>
        <time>2021-04-08T10:47:20Z</time>
      </trkpt>
      <trkpt lat="44.45907" lon="1.58872">
        <ele>188</ele>
        <time>2021-04-08T10:47:57Z</time>
      </trkpt>
      <trkpt lat="44.45969" lon="1.58979">
        <ele>173</ele>
        <time>2021-04-08T10:48:20Z</time>
      </trkpt>
      <trkpt lat="44.46103" lon="1.5904">
        <ele>173</ele>
        <time>2021-04-08T10:48:53Z</time>
      </trkpt>
      <trkpt lat="44.46304" lon="1.59071">
        <ele>162</ele>
        <time>2021-04-08T10:49:40Z</time>
      </trkpt>
      <trkpt lat="44.46267" lon="1.59112">
        <ele>167</ele>
        <time>2021-04-08T10:49:51Z</time>
      </trkpt>
      <trkpt lat="44.461" lon="1.59132">
        <ele>187</ele>
        <time>2021-04-08T10:50:30Z</time>
      </trkpt>
      <trkpt lat="44.4587" lon="1.5929">
        <ele>232</ele>
        <time>2021-04-08T10:51:30Z</time>
      </trkpt>
      <trkpt lat="44.45604" lon="1.59612">
        <ele>277</ele>
        <time>2021-04-08T10:52:52Z</time>
      </trkpt>
      <trkpt lat="44.45513" lon="1.5978">
        <ele>283</ele>
        <time>2021-04-08T10:53:27Z</time>
      </trkpt>
      <trkpt lat="44.45375" lon="1.59943">
        <ele>287</ele>
        <time>2021-04-08T10:54:09Z</time>
      </trkpt>
      <trkpt lat="44.45277" lon="1.60204">
        <ele>285</ele>
        <time>2021-04-08T10:54:58Z</time>
      </trkpt>
      <trkpt lat="44.45164" lon="1.60683">
        <ele>310</ele>
        <time>2021-04-08T10:56:22Z</time>
      </trkpt>
      <trkpt lat="44.45116" lon="1.60959">
        <ele>345</ele>
        <time>2021-04-08T10:57:10Z</time>
      </trkpt>
      <trkpt lat="44.45047" lon="1.61041">
        <ele>347</ele>
        <time>2021-04-08T10:57:31Z</time>
      </trkpt>
      <trkpt lat="44.45324" lon="1.61321">
        <ele>346</ele>
        <time>2021-04-08T10:58:51Z</time>
      </trkpt>
      <trkpt lat="44.45375" lon="1.61505">
        <ele>339</ele>
        <time>2021-04-08T10:59:24Z</time>
      </trkpt>
      <trkpt lat="44.45542" lon="1.61893">
        <ele>347</ele>
        <time>2021-04-08T11:00:39Z</time>
      </trkpt>
      <trkpt lat="44.45546" lon="1.6201">
        <ele>346</ele>
        <time>2021-04-08T11:00:59Z</time>
      </trkpt>
      <trkpt lat="44.45706" lon="1.61878">
        <ele>339</ele>
        <time>2021-04-08T11:01:42Z</time>
      </trkpt>
      <trkpt lat="44.45874" lon="1.61714">
        <ele>323</ele>
        <time>2021-04-08T11:02:30Z</time>
      </trkpt>
      <trkpt lat="44.46016" lon="1.61551">
        <ele>314</ele>
        <time>2021-04-08T11:03:13Z</time>
      </trkpt>
      <trkpt lat="44.46071" lon="1.61393">
        <ele>311</ele>
        <time>2021-04-08T11:03:42Z</time>
      </trkpt>
      <trkpt lat="44.46165" lon="1.61311">
        <ele>306</ele>
        <time>2021-04-08T11:04:08Z</time>
      </trkpt>
      <trkpt lat="44.46256" lon="1.61403">
        <ele>296</ele>
        <time>2021-04-08T11:04:34Z</time>
      </trkpt>
      <trkpt lat="44.46477" lon="1.61443">
        <ele>303</ele>
        <time>2021-04-08T11:05:26Z</time>
      </trkpt>
      <trkpt lat="44.46602" lon="1.61484">
        <ele>308</ele>
        <time>2021-04-08T11:05:56Z</time>
      </trkpt>
      <trkpt lat="44.46682" lon="1.61542">
        <ele>304</ele>
        <time>2021-04-08T11:06:17Z</time>
      </trkpt>
      <trkpt lat="44.46817" lon="1.61452">
        <ele>295</ele>
        <time>2021-04-08T11:06:52Z</time>
      </trkpt>
      <trkpt lat="44.46936" lon="1.61314">
        <ele>274</ele>
        <time>2021-04-08T11:07:28Z</time>
      </trkpt>
      <trkpt lat="44.47268" lon="1.61278">
        <ele>205</ele>
        <time>2021-04-08T11:08:46Z</time>
      </trkpt>
      <trkpt lat="44.47328" lon="1.6125">
        <ele>191</ele>
        <time>2021-04-08T11:09:01Z</time>
      </trkpt>
      <trkpt lat="44.47408" lon="1.61177">
        <ele>175</ele>
        <time>2021-04-08T11:09:23Z</time>
      </trkpt>
      <trkpt lat="44.47337" lon="1.61141">
        <ele>171</ele>
        <time>2021-04-08T11:09:41Z</time>
      </trkpt>
      <trkpt lat="44.47426" lon="1.60948">
        <ele>137</ele>
        <time>2021-04-08T11:10:19Z</time>
      </trkpt>
      <trkpt lat="44.47023" lon="1.60791">
        <ele>135</ele>
        <time>2021-04-08T11:11:57Z</time>
      </trkpt>
      <trkpt lat="44.46927" lon="1.60692">
        <ele>129</ele>
        <time>2021-04-08T11:12:24Z</time>
      </trkpt>
      <trkpt lat="44.46788" lon="1.60297">
        <ele>139</ele>
        <time>2021-04-08T11:13:38Z</time>
      </trkpt>
      <trkpt lat="44.46654" lon="1.60081">
        <ele>145</ele>
        <time>2021-04-08T11:14:25Z</time>
      </trkpt>
      <trkpt lat="44.46526" lon="1.59879">
        <ele>141</ele>
        <time>2021-04-08T11:15:10Z</time>
      </trkpt>
      <trkpt lat="44.46497" lon="1.59776">
        <ele>141</ele>
        <time>2021-04-08T11:15:29Z</time>
      </trkpt>
      <trkpt lat="44.46526" lon="1.59538">
        <ele>137</ele>
        <time>2021-04-08T11:16:09Z</time>
      </trkpt>
      <trkpt lat="44.46789" lon="1.59669">
        <ele>154</ele>
        <time>2021-04-08T11:17:14Z</time>
      </trkpt>
      <trkpt lat="44.46909" lon="1.59832">
        <ele>152</ele>
        <time>2021-04-08T11:17:53Z</time>
      </trkpt>
      <trkpt lat="44.46805" lon="1.59645">
        <ele>160</ele>
        <time>2021-04-08T11:18:33Z</time>
      </trkpt>
      <trkpt lat="44.46717" lon="1.59515">
        <ele>162</ele>
        <time>2021-04-08T11:19:03Z</time>
      </trkpt>
      <trkpt lat="44.46732" lon="1.59382">
        <ele>165</ele>
        <time>2021-04-08T11:19:25Z</time>
      </trkpt>
      <trkpt lat="44.46797" lon="1.59334">
        <ele>174</ele>
        <time>2021-04-08T11:19:42Z</time>
      </trkpt>
      <trkpt lat="44.47021" lon="1.59216">
        <ele>187</ele>
        <time>2021-04-08T11:20:38Z</time>
      </trkpt>
      <trkpt lat="44.47174" lon="1.59118">
        <ele>182</ele>
        <time>2021-04-08T11:21:18Z</time>
      </trkpt>
      <trkpt lat="44.47372" lon="1.5907">
        <ele>178</ele>
        <time>2021-04-08T11:22:04Z</time>
      </trkpt>
      <trkpt lat="44.4744" lon="1.59081">
        <ele>176</ele>
        <time>2021-04-08T11:22:20Z</time>
      </trkpt>
      <trkpt lat="44.47452" lon="1.5907">
        <ele>173</ele>
        <time>2021-04-08T11:22:24Z</time>
      </trkpt>
      <trkpt lat="44.47477" lon="1.59048">
        <ele>168</ele>
        <time>2021-04-08T11:22:31Z</time>
      </trkpt>
      <trkpt lat="44.47489" lon="1.59002">
        <ele>162</ele>
        <time>2021-04-08T11:22:39Z</time>
      </trkpt>
      <trkpt lat="44.4754" lon="1.58994">
        <ele>164</ele>
        <time>2021-04-08T11:22:51Z</time>
      </trkpt>
      <trkpt lat="44.47529" lon="1.58888">
        <ele>155</ele>
        <time>2021-04-08T11:23:09Z</time>
      </trkpt>
      <trkpt lat="44.47741" lon="1.58705">
        <ele>142</ele>
        <time>2021-04-08T11:24:07Z</time>
      </trkpt>
      <trkpt lat="44.47981" lon="1.59001">
        <ele>150</ele>
        <time>2021-04-08T11:25:21Z</time>
      </trkpt>
      <trkpt lat="44.48036" lon="1.59038">
        <ele>151</ele>
        <time>2021-04-08T11:25:36Z</time>
      </trkpt>
      <trkpt lat="44.48128" lon="1.59027">
        <ele>154</ele>
        <time>2021-04-08T11:25:57Z</time>
      </trkpt>
      <trkpt lat="44.48258" lon="1.58984">
        <ele>158</ele>
        <time>2021-04-08T11:26:29Z</time>
      </trkpt>
      <trkpt lat="44.48339" lon="1.59001">
        <ele>155</ele>
        <time>2021-04-08T11:26:48Z</time>
      </trkpt>
      <trkpt lat="44.48413" lon="1.59038">
        <ele>159</ele>
        <time>2021-04-08T11:27:06Z</time>
      </trkpt>
      <trkpt lat="44.48547" lon="1.58971">
        <ele>162</ele>
        <time>2021-04-08T11:27:39Z</time>
      </trkpt>
      <trkpt lat="44.48672" lon="1.58809">
        <ele>169</ele>
        <time>2021-04-08T11:28:19Z</time>
      </trkpt>
      <trkpt lat="44.48698" lon="1.58722">
        <ele>176</ele>
        <time>2021-04-08T11:28:35Z</time>
      </trkpt>
      <trkpt lat="44.48761" lon="1.58669">
        <ele>171</ele>
        <time>2021-04-08T11:28:52Z</time>
      </trkpt>
      <trkpt lat="44.48801" lon="1.586">
        <ele>182</ele>
        <time>2021-04-08T11:29:07Z</time>
      </trkpt>
      <trkpt lat="44.48887" lon="1.586">
        <ele>179</ele>
        <time>2021-04-08T11:29:27Z</time>
      </trkpt>
      <trkpt lat="44.49057" lon="1.58574">
        <ele>183</ele>
        <time>2021-04-08T11:30:07Z</time>
      </trkpt>
      <trkpt lat="44.49214" lon="1.58617">
        <ele>187</ele>
        <time>2021-04-08T11:30:44Z</time>
      </trkpt>
      <trkpt lat="44.49387" lon="1.58596">
        <ele>193</ele>
        <time>2021-04-08T11:31:25Z</time>
      </trkpt>
      <trkpt lat="44.49689" lon="1.58542">
        <ele>202</ele>
        <time>2021-04-08T11:32:36Z</time>
      </trkpt>
      <trkpt lat="44.49984" lon="1.58416">
        <ele>209</ele>
        <time>2021-04-08T11:33:48Z</time>
      </trkpt>
      <trkpt lat="44.50146" lon="1.58469">
        <ele>219</ele>
        <time>2021-04-08T11:34:27Z</time>
      </trkpt>
      <trkpt lat="44.50238" lon="1.58546">
        <ele>222</ele>
        <time>2021-04-08T11:34:52Z</time>
      </trkpt>
      <trkpt lat="44.50362" lon="1.58632">
        <ele>234</ele>
        <time>2021-04-08T11:35:24Z</time>
      </trkpt>
      <trkpt lat="44.50376" lon="1.58834">
        <ele>260</ele>
        <time>2021-04-08T11:35:58Z</time>
      </trkpt>
      <trkpt lat="44.50401" lon="1.58762">
        <ele>253</ele>
        <time>2021-04-08T11:36:11Z</time>
      </trkpt>
      <trkpt lat="44.50477" lon="1.58713">
        <ele>259</ele>
        <time>2021-04-08T11:36:31Z</time>
      </trkpt>
      <trkpt lat="44.50537" lon="1.5873">
        <ele>270</ele>
        <time>2021-04-08T11:36:45Z</time>
      </trkpt>
      <trkpt lat="44.50728" lon="1.58751">
        <ele>288</ele>
        <time>2021-04-08T11:37:30Z</time>
      </trkpt>
      <trkpt lat="44.50863" lon="1.5882">
        <ele>300</ele>
        <time>2021-04-08T11:38:03Z</time>
      </trkpt>
      <trkpt lat="44.50945" lon="1.58713">
        <ele>299</ele>
        <time>2021-04-08T11:38:29Z</time>
      </trkpt>
      <trkpt lat="44.50839" lon="1.58502">
        <ele>295</ele>
        <time>2021-04-08T11:39:12Z</time>
      </trkpt>
      <trkpt lat="44.5076" lon="1.58367">
        <ele>300</ele>
        <time>2021-04-08T11:39:41Z</time>
      </trkpt>
      <trkpt lat="44.50194" lon="1.57954">
        <ele>282</ele>
        <time>2021-04-08T11:42:10Z</time>
      </trkpt>
      <trkpt lat="44.49918" lon="1.57663">
        <ele>299</ele>
        <time>2021-04-08T11:43:31Z</time>
      </trkpt>
      <trkpt lat="44.49809" lon="1.57566">
        <ele>301</ele>
        <time>2021-04-08T11:44:01Z</time>
      </trkpt>
      <trkpt lat="44.49593" lon="1.5715">
        <ele>282</ele>
        <time>2021-04-08T11:45:27Z</time>
      </trkpt>
      <trkpt lat="44.48939" lon="1.57019">
        <ele>262</ele>
        <time>2021-04-08T11:48:01Z</time>
      </trkpt>
      <trkpt lat="44.48686" lon="1.56603">
        <ele>240</ele>
        <time>2021-04-08T11:49:32Z</time>
      </trkpt>
      <trkpt lat="44.48753" lon="1.56433">
        <ele>239</ele>
        <time>2021-04-08T11:50:05Z</time>
      </trkpt>
      <trkpt lat="44.49021" lon="1.56254">
        <ele>251</ele>
        <time>2021-04-08T11:51:14Z</time>
      </trkpt>
      <trkpt lat="44.48956" lon="1.55945">
        <ele>234</ele>
        <time>2021-04-08T11:52:08Z</time>
      </trkpt>
      <trkpt lat="44.48942" lon="1.55919">
        <ele>233</ele>
        <time>2021-04-08T11:52:13Z</time>
      </trkpt>
      <trkpt lat="44.48953" lon="1.55882">
        <ele>225</ele>
        <time>2021-04-08T11:52:20Z</time>
      </trkpt>
      <trkpt lat="44.48855" lon="1.5573">
        <ele>204</ele>
        <time>2021-04-08T11:52:54Z</time>
      </trkpt>
      <trkpt lat="44.48811" lon="1.55521">
        <ele>169</ele>
        <time>2021-04-08T11:53:30Z</time>
      </trkpt>
      <trkpt lat="44.4867" lon="1.55496">
        <ele>161</ele>
        <time>2021-04-08T11:54:03Z</time>
      </trkpt>
      <trkpt lat="44.4882" lon="1.55468">
        <ele>153</ele>
        <time>2021-04-08T11:54:39Z</time>
      </trkpt>
      <trkpt lat="44.48735" lon="1.55423">
        <ele>148</ele>
        <time>2021-04-08T11:55:00Z</time>
      </trkpt>
      <trkpt lat="44.48825" lon="1.55405">
        <ele>140</ele>
        <time>2021-04-08T11:55:21Z</time>
      </trkpt>
      <trkpt lat="44.48633" lon="1.55295">
        <ele>134</ele>
        <time>2021-04-08T11:56:10Z</time>
      </trkpt>
      <trkpt lat="44.48569" lon="1.55271">
        <ele>133</ele>
        <time>2021-04-08T11:56:25Z</time>
      </trkpt>
      <trkpt lat="44.48571" lon="1.55239">
        <ele>137</ele>
        <time>2021-04-08T11:56:30Z</time>
      </trkpt>
      <trkpt lat="44.48391" lon="1.55159">
        <ele>140</ele>
        <time>2021-04-08T11:57:14Z</time>
      </trkpt>
      <trkpt lat="44.48358" lon="1.55192">
        <ele>133</ele>
        <time>2021-04-08T11:57:24Z</time>
      </trkpt>
      <trkpt lat="44.48453" lon="1.55304">
        <ele>126</ele>
        <time>2021-04-08T11:57:53Z</time>
      </trkpt>
      <trkpt lat="44.4843" lon="1.55334">
        <ele>123</ele>
        <time>2021-04-08T11:58:00Z</time>
      </trkpt>
      <trkpt lat="44.48391" lon="1.55309">
        <ele>124</ele>
        <time>2021-04-08T11:58:10Z</time>
      </trkpt>
      <trkpt lat="44.4829" lon="1.55191">
        <ele>128</ele>
        <time>2021-04-08T11:58:41Z</time>
      </trkpt>
      <trkpt lat="44.47996" lon="1.55071">
        <ele>134</ele>
        <time>2021-04-08T11:59:52Z</time>
      </trkpt>
      <trkpt lat="44.47857" lon="1.55035">
        <ele>128</ele>
        <time>2021-04-08T12:00:25Z</time>
      </trkpt>
      <trkpt lat="44.47838" lon="1.54946">
        <ele>131</ele>
        <time>2021-04-08T12:00:41Z</time>
      </trkpt>
      <trkpt lat="44.47789" lon="1.54912">
        <ele>130</ele>
        <time>2021-04-08T12:00:54Z</time>
      </trkpt>
      <trkpt lat="44.4772" lon="1.54864">
        <ele>130</ele>
        <time>2021-04-08T12:01:12Z</time>
      </trkpt>
      <trkpt lat="44.47732" lon="1.54785">
        <ele>139</ele>
        <time>2021-04-08T12:01:25Z</time>
      </trkpt>
      <trkpt lat="44.47543" lon="1.54736">
        <ele>145</ele>
        <time>2021-04-08T12:02:10Z</time>
      </trkpt>
      <trkpt lat="44.47252" lon="1.54806">
        <ele>148</ele>
        <time>2021-04-08T12:03:19Z</time>
      </trkpt>
      <trkpt lat="44.47103" lon="1.54856">
        <ele>146</ele>
        <time>2021-04-08T12:03:55Z</time>
      </trkpt>
      <trkpt lat="44.46945" lon="1.54811">
        <ele>147</ele>
        <time>2021-04-08T12:04:32Z</time>
      </trkpt>
      <trkpt lat="44.46818" lon="1.54588">
        <ele>138</ele>
        <time>2021-04-08T12:05:20Z</time>
      </trkpt>
      <trkpt lat="44.47005" lon="1.54622">
        <ele>164</ele>
        <time>2021-04-08T12:06:04Z</time>
      </trkpt>
      <trkpt lat="44.47218" lon="1.54579">
        <ele>183</ele>
        <time>2021-04-08T12:06:54Z</time>
      </trkpt>
      <trkpt lat="44.47265" lon="1.5459">
        <ele>186</ele>
        <time>2021-04-08T12:07:05Z</time>
      </trkpt>
      <trkpt lat="44.47288" lon="1.54618">
        <ele>184</ele>
        <time>2021-04-08T12:07:13Z</time>
      </trkpt>
      <trkpt lat="44.47337" lon="1.54566">
        <ele>194</ele>
        <time>2021-04-08T12:07:27Z</time>
      </trkpt>
      <trkpt lat="44.47327" lon="1.54482">
        <ele>199</ele>
        <time>2021-04-08T12:07:41Z</time>
      </trkpt>
      <trkpt lat="44.47458" lon="1.54364">
        <ele>220</ele>
        <time>2021-04-08T12:08:17Z</time>
      </trkpt>
      <trkpt lat="44.47486" lon="1.54259">
        <ele>230</ele>
        <time>2021-04-08T12:08:36Z</time>
      </trkpt>
      <trkpt lat="44.47657" lon="1.54077">
        <ele>247</ele>
        <time>2021-04-08T12:09:26Z</time>
      </trkpt>
      <trkpt lat="44.4774" lon="1.54328">
        <ele>232</ele>
        <time>2021-04-08T12:10:12Z</time>
      </trkpt>
    </trkseg>
  </trk>
</gpx>